sensor_id;sensor_type;location;lat;lon;timestamp;P1;durP1;ratioP1;P2;durP2;ratioP2
53281;SDS011;39167;52.794;6.892;2023-02-18T00:02:01;18.00;;;3.05;;
53281;SDS011;39167;52.794;6.892;2023-02-18T00:04:28;14.13;;;2.70;;
53281;SDS011;39167;52.794;6.892;2023-02-18T00:06:54;17.70;;;2.97;;
53281;SDS011;39167;52.794;6.892;2023-02-18T00:09:19;13.13;;;2.72;;
53281;SDS011;39167;52.794;6.892;2023-02-18T00:11:45;14.77;;;3.10;;
53281;SDS011;39167;52.794;6.892;2023-02-18T00:14:12;25.33;;;3.50;;
53281;SDS011;39167;52.794;6.892;2023-02-18T00:16:38;14.85;;;2.67;;
53281;SDS011;39167;52.794;6.892;2023-02-18T00:19:05;13.82;;;2.72;;
53281;SDS011;39167;52.794;6.892;2023-02-18T00:21:34;14.85;;;2.78;;
53281;SDS011;39167;52.794;6.892;2023-02-18T00:24:00;10.80;;;2.85;;
53281;SDS011;39167;52.794;6.892;2023-02-18T00:26:26;14.57;;;3.20;;
53281;SDS011;39167;52.794;6.892;2023-02-18T00:28:52;14.02;;;3.33;;
53281;SDS011;39167;52.794;6.892;2023-02-18T00:31:20;14.85;;;2.65;;
53281;SDS011;39167;52.794;6.892;2023-02-18T00:33:47;19.08;;;3.42;;
53281;SDS011;39167;52.794;6.892;2023-02-18T00:36:14;9.93;;;2.42;;
53281;SDS011;39167;52.794;6.892;2023-02-18T00:38:48;21.48;;;3.38;;
53281;SDS011;39167;52.794;6.892;2023-02-18T00:41:19;19.38;;;3.15;;
53281;SDS011;39167;52.794;6.892;2023-02-18T00:43:47;9.43;;;2.72;;
53281;SDS011;39167;52.794;6.892;2023-02-18T00:46:13;14.05;;;2.38;;
53281;SDS011;39167;52.794;6.892;2023-02-18T00:48:39;13.05;;;2.80;;
53281;SDS011;39167;52.794;6.892;2023-02-18T00:51:06;16.50;;;2.72;;
53281;SDS011;39167;52.794;6.892;2023-02-18T00:53:32;14.35;;;2.70;;
53281;SDS011;39167;52.794;6.892;2023-02-18T00:55:59;12.05;;;3.00;;
53281;SDS011;39167;52.794;6.892;2023-02-18T00:58:25;10.18;;;2.70;;
53281;SDS011;39167;52.794;6.892;2023-02-18T01:00:51;20.08;;;3.60;;
53281;SDS011;39167;52.794;6.892;2023-02-18T01:03:17;12.35;;;2.83;;
53281;SDS011;39167;52.794;6.892;2023-02-18T01:05:43;14.98;;;3.28;;
53281;SDS011;39167;52.794;6.892;2023-02-18T01:08:09;13.98;;;3.13;;
53281;SDS011;39167;52.794;6.892;2023-02-18T01:10:35;10.55;;;2.60;;
53281;SDS011;39167;52.794;6.892;2023-02-18T01:13:04;11.25;;;2.55;;
53281;SDS011;39167;52.794;6.892;2023-02-18T01:15:30;16.50;;;3.10;;
53281;SDS011;39167;52.794;6.892;2023-02-18T01:17:56;14.40;;;2.90;;
53281;SDS011;39167;52.794;6.892;2023-02-18T01:20:22;12.57;;;3.28;;
53281;SDS011;39167;52.794;6.892;2023-02-18T01:22:47;17.30;;;3.72;;
53281;SDS011;39167;52.794;6.892;2023-02-18T01:25:13;11.93;;;2.85;;
53281;SDS011;39167;52.794;6.892;2023-02-18T01:27:39;18.30;;;2.92;;
53281;SDS011;39167;52.794;6.892;2023-02-18T01:30:06;20.48;;;4.20;;
53281;SDS011;39167;52.794;6.892;2023-02-18T01:32:33;15.48;;;3.83;;
53281;SDS011;39167;52.794;6.892;2023-02-18T01:35:00;17.95;;;4.00;;
53281;SDS011;39167;52.794;6.892;2023-02-18T01:37:27;15.30;;;4.00;;
53281;SDS011;39167;52.794;6.892;2023-02-18T01:39:53;17.65;;;4.65;;
53281;SDS011;39167;52.794;6.892;2023-02-18T01:42:20;15.63;;;4.80;;
53281;SDS011;39167;52.794;6.892;2023-02-18T01:44:49;17.05;;;4.85;;
53281;SDS011;39167;52.794;6.892;2023-02-18T01:47:15;23.98;;;4.95;;
53281;SDS011;39167;52.794;6.892;2023-02-18T01:49:41;21.33;;;5.43;;
53281;SDS011;39167;52.794;6.892;2023-02-18T01:52:16;16.73;;;4.53;;
53281;SDS011;39167;52.794;6.892;2023-02-18T01:54:46;20.05;;;5.47;;
53281;SDS011;39167;52.794;6.892;2023-02-18T01:57:17;17.58;;;5.38;;
53281;SDS011;39167;52.794;6.892;2023-02-18T02:02:16;18.92;;;5.72;;
53281;SDS011;39167;52.794;6.892;2023-02-18T02:04:45;20.50;;;5.35;;
53281;SDS011;39167;52.794;6.892;2023-02-18T02:07:12;20.77;;;6.78;;
53281;SDS011;39167;52.794;6.892;2023-02-18T02:09:39;22.92;;;7.00;;
53281;SDS011;39167;52.794;6.892;2023-02-18T02:17:36;24.50;;;9.50;;
53281;SDS011;39167;52.794;6.892;2023-02-18T02:34:23;30.95;;;11.73;;
53281;SDS011;39167;52.794;6.892;2023-02-18T02:37:09;30.48;;;12.73;;
53281;SDS011;39167;52.794;6.892;2023-02-18T02:42:45;29.63;;;11.93;;
53281;SDS011;39167;52.794;6.892;2023-02-18T02:53:40;28.58;;;11.70;;
53281;SDS011;39167;52.794;6.892;2023-02-18T02:56:20;31.70;;;12.32;;
53281;SDS011;39167;52.794;6.892;2023-02-18T02:59:08;25.98;;;11.50;;
53281;SDS011;39167;52.794;6.892;2023-02-18T03:01:49;23.98;;;11.00;;
53281;SDS011;39167;52.794;6.892;2023-02-18T03:13:41;31.10;;;12.95;;
53281;SDS011;39167;52.794;6.892;2023-02-18T03:16:12;32.22;;;13.15;;
53281;SDS011;39167;52.794;6.892;2023-02-18T03:21:38;32.47;;;14.38;;
53281;SDS011;39167;52.794;6.892;2023-02-18T03:24:13;36.92;;;13.80;;
53281;SDS011;39167;52.794;6.892;2023-02-18T03:26:49;39.85;;;14.75;;
53281;SDS011;39167;52.794;6.892;2023-02-18T03:29:18;28.80;;;13.82;;
53281;SDS011;39167;52.794;6.892;2023-02-18T03:31:47;36.33;;;15.93;;
53281;SDS011;39167;52.794;6.892;2023-02-18T03:34:17;39.55;;;16.42;;
53281;SDS011;39167;52.794;6.892;2023-02-18T03:39:17;32.45;;;15.75;;
53281;SDS011;39167;52.794;6.892;2023-02-18T03:41:45;38.53;;;16.92;;
53281;SDS011;39167;52.794;6.892;2023-02-18T03:44:11;36.58;;;18.02;;
53281;SDS011;39167;52.794;6.892;2023-02-18T03:46:38;35.47;;;16.63;;
53281;SDS011;39167;52.794;6.892;2023-02-18T03:49:05;38.58;;;19.27;;
53281;SDS011;39167;52.794;6.892;2023-02-18T03:51:31;50.47;;;20.77;;
53281;SDS011;39167;52.794;6.892;2023-02-18T03:53:57;50.88;;;20.30;;
53281;SDS011;39167;52.794;6.892;2023-02-18T03:56:22;41.72;;;21.02;;
53281;SDS011;39167;52.794;6.892;2023-02-18T03:58:48;47.92;;;21.13;;
53281;SDS011;39167;52.794;6.892;2023-02-18T04:01:14;50.92;;;22.35;;
53281;SDS011;39167;52.794;6.892;2023-02-18T04:03:40;47.13;;;20.42;;
53281;SDS011;39167;52.794;6.892;2023-02-18T04:06:05;49.08;;;24.00;;
53281;SDS011;39167;52.794;6.892;2023-02-18T04:08:31;52.95;;;24.15;;
53281;SDS011;39167;52.794;6.892;2023-02-18T04:10:57;58.67;;;22.92;;
53281;SDS011;39167;52.794;6.892;2023-02-18T04:13:23;52.80;;;23.40;;
53281;SDS011;39167;52.794;6.892;2023-02-18T04:15:49;55.08;;;24.77;;
53281;SDS011;39167;52.794;6.892;2023-02-18T04:18:15;57.83;;;25.50;;
53281;SDS011;39167;52.794;6.892;2023-02-18T04:20:41;56.70;;;25.95;;
53281;SDS011;39167;52.794;6.892;2023-02-18T04:23:07;54.33;;;24.88;;
53281;SDS011;39167;52.794;6.892;2023-02-18T04:25:33;51.40;;;26.77;;
53281;SDS011;39167;52.794;6.892;2023-02-18T04:27:59;60.95;;;26.13;;
53281;SDS011;39167;52.794;6.892;2023-02-18T04:30:25;56.80;;;26.60;;
53281;SDS011;39167;52.794;6.892;2023-02-18T04:32:51;60.80;;;27.77;;
53281;SDS011;39167;52.794;6.892;2023-02-18T04:35:17;62.97;;;28.65;;
53281;SDS011;39167;52.794;6.892;2023-02-18T04:37:43;62.13;;;28.67;;
53281;SDS011;39167;52.794;6.892;2023-02-18T04:40:09;59.58;;;27.67;;
53281;SDS011;39167;52.794;6.892;2023-02-18T04:42:35;55.67;;;27.73;;
53281;SDS011;39167;52.794;6.892;2023-02-18T04:45:01;53.65;;;26.80;;
53281;SDS011;39167;52.794;6.892;2023-02-18T04:47:26;55.83;;;26.77;;
53281;SDS011;39167;52.794;6.892;2023-02-18T04:49:52;61.83;;;27.85;;
53281;SDS011;39167;52.794;6.892;2023-02-18T04:52:18;65.38;;;27.95;;
53281;SDS011;39167;52.794;6.892;2023-02-18T04:54:44;64.88;;;27.15;;
53281;SDS011;39167;52.794;6.892;2023-02-18T04:57:09;59.97;;;25.92;;
53281;SDS011;39167;52.794;6.892;2023-02-18T04:59:35;62.75;;;27.33;;
53281;SDS011;39167;52.794;6.892;2023-02-18T05:02:01;60.55;;;26.75;;
53281;SDS011;39167;52.794;6.892;2023-02-18T05:04:27;51.65;;;25.10;;
53281;SDS011;39167;52.794;6.892;2023-02-18T05:06:54;54.10;;;24.50;;
53281;SDS011;39167;52.794;6.892;2023-02-18T05:09:19;61.28;;;24.45;;
53281;SDS011;39167;52.794;6.892;2023-02-18T05:11:45;57.08;;;24.40;;
53281;SDS011;39167;52.794;6.892;2023-02-18T05:14:11;55.92;;;23.33;;
53281;SDS011;39167;52.794;6.892;2023-02-18T05:16:38;54.28;;;23.65;;
53281;SDS011;39167;52.794;6.892;2023-02-18T05:19:03;54.47;;;22.80;;
53281;SDS011;39167;52.794;6.892;2023-02-18T05:21:30;49.00;;;23.02;;
53281;SDS011;39167;52.794;6.892;2023-02-18T05:23:55;50.92;;;22.77;;
53281;SDS011;39167;52.794;6.892;2023-02-18T05:26:21;63.90;;;22.83;;
53281;SDS011;39167;52.794;6.892;2023-02-18T05:28:47;53.78;;;22.05;;
53281;SDS011;39167;52.794;6.892;2023-02-18T05:31:13;59.47;;;23.70;;
53281;SDS011;39167;52.794;6.892;2023-02-18T05:33:39;55.45;;;23.02;;
53281;SDS011;39167;52.794;6.892;2023-02-18T05:36:05;59.47;;;24.80;;
53281;SDS011;39167;52.794;6.892;2023-02-18T05:38:31;58.08;;;22.75;;
53281;SDS011;39167;52.794;6.892;2023-02-18T05:40:56;57.80;;;24.08;;
53281;SDS011;39167;52.794;6.892;2023-02-18T05:43:22;50.15;;;21.70;;
53281;SDS011;39167;52.794;6.892;2023-02-18T05:45:48;49.83;;;20.20;;
53281;SDS011;39167;52.794;6.892;2023-02-18T05:48:14;45.92;;;19.65;;
53281;SDS011;39167;52.794;6.892;2023-02-18T05:50:39;42.30;;;18.40;;
53281;SDS011;39167;52.794;6.892;2023-02-18T05:53:05;42.22;;;18.20;;
53281;SDS011;39167;52.794;6.892;2023-02-18T05:55:31;40.67;;;17.20;;
53281;SDS011;39167;52.794;6.892;2023-02-18T05:58:01;38.42;;;16.60;;
53281;SDS011;39167;52.794;6.892;2023-02-18T06:00:27;37.15;;;15.80;;
53281;SDS011;39167;52.794;6.892;2023-02-18T06:02:54;38.92;;;16.00;;
53281;SDS011;39167;52.794;6.892;2023-02-18T06:05:20;36.92;;;15.05;;
53281;SDS011;39167;52.794;6.892;2023-02-18T06:07:46;33.17;;;13.80;;
53281;SDS011;39167;52.794;6.892;2023-02-18T06:10:11;33.80;;;13.70;;
53281;SDS011;39167;52.794;6.892;2023-02-18T06:12:37;29.50;;;13.07;;
53281;SDS011;39167;52.794;6.892;2023-02-18T06:15:03;28.67;;;12.80;;
53281;SDS011;39167;52.794;6.892;2023-02-18T06:17:29;28.70;;;13.27;;
53281;SDS011;39167;52.794;6.892;2023-02-18T06:19:55;36.33;;;14.63;;
53281;SDS011;39167;52.794;6.892;2023-02-18T06:22:20;31.80;;;13.70;;
53281;SDS011;39167;52.794;6.892;2023-02-18T06:24:46;29.70;;;12.73;;
53281;SDS011;39167;52.794;6.892;2023-02-18T06:27:12;31.77;;;12.93;;
53281;SDS011;39167;52.794;6.892;2023-02-18T06:29:37;29.10;;;13.35;;
53281;SDS011;39167;52.794;6.892;2023-02-18T06:32:03;27.80;;;11.50;;
53281;SDS011;39167;52.794;6.892;2023-02-18T06:34:29;30.75;;;13.07;;
53281;SDS011;39167;52.794;6.892;2023-02-18T06:36:55;30.25;;;11.95;;
53281;SDS011;39167;52.794;6.892;2023-02-18T06:39:20;28.13;;;11.10;;
53281;SDS011;39167;52.794;6.892;2023-02-18T06:41:46;31.73;;;11.82;;
53281;SDS011;39167;52.794;6.892;2023-02-18T06:44:12;24.70;;;11.07;;
53281;SDS011;39167;52.794;6.892;2023-02-18T06:46:40;26.27;;;10.13;;
53281;SDS011;39167;52.794;6.892;2023-02-18T06:49:06;24.08;;;9.70;;
53281;SDS011;39167;52.794;6.892;2023-02-18T06:51:32;23.60;;;9.98;;
53281;SDS011;39167;52.794;6.892;2023-02-18T06:53:57;23.02;;;8.88;;
53281;SDS011;39167;52.794;6.892;2023-02-18T06:56:23;22.30;;;8.90;;
53281;SDS011;39167;52.794;6.892;2023-02-18T06:58:49;20.48;;;7.78;;
53281;SDS011;39167;52.794;6.892;2023-02-18T07:01:15;15.15;;;7.18;;
53281;SDS011;39167;52.794;6.892;2023-02-18T07:03:40;13.23;;;7.43;;
53281;SDS011;39167;52.794;6.892;2023-02-18T07:06:06;11.95;;;5.90;;
53281;SDS011;39167;52.794;6.892;2023-02-18T07:08:32;13.07;;;6.30;;
53281;SDS011;39167;52.794;6.892;2023-02-18T07:11:00;12.18;;;6.78;;
53281;SDS011;39167;52.794;6.892;2023-02-18T07:13:26;11.38;;;5.95;;
53281;SDS011;39167;52.794;6.892;2023-02-18T07:15:51;12.43;;;6.32;;
53281;SDS011;39167;52.794;6.892;2023-02-18T07:18:17;10.88;;;5.88;;
53281;SDS011;39167;52.794;6.892;2023-02-18T07:20:43;12.85;;;6.85;;
53281;SDS011;39167;52.794;6.892;2023-02-18T07:23:08;11.95;;;6.60;;
53281;SDS011;39167;52.794;6.892;2023-02-18T07:25:35;14.40;;;8.18;;
53281;SDS011;39167;52.794;6.892;2023-02-18T07:28:01;14.45;;;8.82;;
53281;SDS011;39167;52.794;6.892;2023-02-18T07:30:26;17.25;;;9.43;;
53281;SDS011;39167;52.794;6.892;2023-02-18T07:32:52;17.63;;;9.88;;
53281;SDS011;39167;52.794;6.892;2023-02-18T07:35:18;18.83;;;10.43;;
53281;SDS011;39167;52.794;6.892;2023-02-18T07:37:48;18.85;;;11.38;;
53281;SDS011;39167;52.794;6.892;2023-02-18T07:40:18;22.02;;;11.85;;
53281;SDS011;39167;52.794;6.892;2023-02-18T07:42:46;23.23;;;12.00;;
53281;SDS011;39167;52.794;6.892;2023-02-18T07:45:12;19.95;;;12.25;;
53281;SDS011;39167;52.794;6.892;2023-02-18T07:47:38;21.48;;;13.05;;
53281;SDS011;39167;52.794;6.892;2023-02-18T07:50:06;24.55;;;13.15;;
53281;SDS011;39167;52.794;6.892;2023-02-18T07:52:33;23.17;;;13.60;;
53281;SDS011;39167;52.794;6.892;2023-02-18T07:54:58;26.98;;;13.85;;
53281;SDS011;39167;52.794;6.892;2023-02-18T07:57:24;22.02;;;12.07;;
53281;SDS011;39167;52.794;6.892;2023-02-18T07:59:50;21.17;;;12.15;;
53281;SDS011;39167;52.794;6.892;2023-02-18T08:02:16;21.05;;;11.10;;
53281;SDS011;39167;52.794;6.892;2023-02-18T08:04:43;25.98;;;11.48;;
53281;SDS011;39167;52.794;6.892;2023-02-18T08:07:13;25.42;;;11.35;;
53281;SDS011;39167;52.794;6.892;2023-02-18T08:09:40;18.15;;;10.90;;
53281;SDS011;39167;52.794;6.892;2023-02-18T08:12:06;19.73;;;10.20;;
53281;SDS011;39167;52.794;6.892;2023-02-18T08:14:32;19.88;;;8.93;;
53281;SDS011;39167;52.794;6.892;2023-02-18T08:16:58;15.95;;;8.75;;
53281;SDS011;39167;52.794;6.892;2023-02-18T08:19:24;21.02;;;9.45;;
53281;SDS011;39167;52.794;6.892;2023-02-18T08:21:49;17.17;;;8.68;;
53281;SDS011;39167;52.794;6.892;2023-02-18T08:24:15;20.27;;;8.30;;
53281;SDS011;39167;52.794;6.892;2023-02-18T08:26:41;19.98;;;8.43;;
53281;SDS011;39167;52.794;6.892;2023-02-18T08:29:06;17.25;;;8.55;;
53281;SDS011;39167;52.794;6.892;2023-02-18T08:31:32;15.23;;;7.78;;
53281;SDS011;39167;52.794;6.892;2023-02-18T08:33:58;18.10;;;7.65;;
53281;SDS011;39167;52.794;6.892;2023-02-18T08:36:25;16.15;;;6.88;;
53281;SDS011;39167;52.794;6.892;2023-02-18T08:38:51;16.25;;;7.20;;
53281;SDS011;39167;52.794;6.892;2023-02-18T08:41:17;14.70;;;7.38;;
53281;SDS011;39167;52.794;6.892;2023-02-18T08:43:43;13.23;;;6.68;;
53281;SDS011;39167;52.794;6.892;2023-02-18T08:46:10;15.43;;;5.80;;
53281;SDS011;39167;52.794;6.892;2023-02-18T08:48:35;12.73;;;6.25;;
53281;SDS011;39167;52.794;6.892;2023-02-18T08:51:12;13.63;;;6.60;;
53281;SDS011;39167;52.794;6.892;2023-02-18T08:53:47;13.50;;;6.50;;
53281;SDS011;39167;52.794;6.892;2023-02-18T08:56:14;14.32;;;6.20;;
53281;SDS011;39167;52.794;6.892;2023-02-18T08:58:41;15.60;;;6.07;;
53281;SDS011;39167;52.794;6.892;2023-02-18T09:01:07;16.90;;;6.32;;
53281;SDS011;39167;52.794;6.892;2023-02-18T09:03:34;13.20;;;5.22;;
53281;SDS011;39167;52.794;6.892;2023-02-18T09:06:00;14.95;;;5.93;;
53281;SDS011;39167;52.794;6.892;2023-02-18T09:08:26;10.27;;;5.00;;
53281;SDS011;39167;52.794;6.892;2023-02-18T09:10:59;14.05;;;5.65;;
53281;SDS011;39167;52.794;6.892;2023-02-18T09:13:26;10.82;;;5.30;;
53281;SDS011;39167;52.794;6.892;2023-02-18T09:15:56;17.50;;;5.45;;
53281;SDS011;39167;52.794;6.892;2023-02-18T09:18:22;10.77;;;4.90;;
53281;SDS011;39167;52.794;6.892;2023-02-18T09:20:48;14.02;;;5.05;;
53281;SDS011;39167;52.794;6.892;2023-02-18T09:23:14;10.65;;;4.97;;
53281;SDS011;39167;52.794;6.892;2023-02-18T09:25:40;9.50;;;4.65;;
53281;SDS011;39167;52.794;6.892;2023-02-18T09:28:06;9.30;;;4.63;;
53281;SDS011;39167;52.794;6.892;2023-02-18T09:30:31;12.18;;;5.32;;
53281;SDS011;39167;52.794;6.892;2023-02-18T09:32:57;12.20;;;4.60;;
53281;SDS011;39167;52.794;6.892;2023-02-18T09:35:22;13.02;;;4.15;;
53281;SDS011;39167;52.794;6.892;2023-02-18T09:37:48;11.35;;;4.03;;
53281;SDS011;39167;52.794;6.892;2023-02-18T09:40:20;9.75;;;3.70;;
53281;SDS011;39167;52.794;6.892;2023-02-18T09:42:51;10.32;;;4.00;;
53281;SDS011;39167;52.794;6.892;2023-02-18T09:45:19;11.18;;;4.10;;
53281;SDS011;39167;52.794;6.892;2023-02-18T09:47:45;7.18;;;3.50;;
53281;SDS011;39167;52.794;6.892;2023-02-18T09:50:16;11.63;;;4.32;;
53281;SDS011;39167;52.794;6.892;2023-02-18T09:52:43;9.73;;;4.40;;
53281;SDS011;39167;52.794;6.892;2023-02-18T09:55:14;15.82;;;4.20;;
53281;SDS011;39167;52.794;6.892;2023-02-18T09:57:44;9.85;;;3.50;;
53281;SDS011;39167;52.794;6.892;2023-02-18T10:00:19;12.25;;;4.32;;
53281;SDS011;39167;52.794;6.892;2023-02-18T10:03:07;11.20;;;3.53;;
53281;SDS011;39167;52.794;6.892;2023-02-18T10:08:25;11.15;;;3.40;;
53281;SDS011;39167;52.794;6.892;2023-02-18T10:10:53;12.98;;;3.55;;
53281;SDS011;39167;52.794;6.892;2023-02-18T10:13:20;9.55;;;3.38;;
53281;SDS011;39167;52.794;6.892;2023-02-18T10:15:49;9.55;;;3.78;;
53281;SDS011;39167;52.794;6.892;2023-02-18T10:18:28;12.93;;;3.33;;
53281;SDS011;39167;52.794;6.892;2023-02-18T10:23:34;7.63;;;3.53;;
53281;SDS011;39167;52.794;6.892;2023-02-18T10:26:04;8.90;;;2.90;;
53281;SDS011;39167;52.794;6.892;2023-02-18T10:28:32;14.95;;;3.50;;
53281;SDS011;39167;52.794;6.892;2023-02-18T10:31:08;11.30;;;3.40;;
53281;SDS011;39167;52.794;6.892;2023-02-18T10:33:46;14.07;;;3.45;;
53281;SDS011;39167;52.794;6.892;2023-02-18T10:36:46;19.75;;;3.58;;
53281;SDS011;39167;52.794;6.892;2023-02-18T10:42:18;20.35;;;4.10;;
53281;SDS011;39167;52.794;6.892;2023-02-18T10:50:18;14.27;;;4.03;;
53281;SDS011;39167;52.794;6.892;2023-02-18T10:52:55;15.50;;;3.78;;
53281;SDS011;39167;52.794;6.892;2023-02-18T10:55:39;16.17;;;3.55;;
53281;SDS011;39167;52.794;6.892;2023-02-18T11:00:55;14.13;;;3.03;;
53281;SDS011;39167;52.794;6.892;2023-02-18T11:03:22;14.80;;;3.05;;
53281;SDS011;39167;52.794;6.892;2023-02-18T11:05:56;16.67;;;3.13;;
53281;SDS011;39167;52.794;6.892;2023-02-18T11:08:27;12.82;;;3.20;;
53281;SDS011;39167;52.794;6.892;2023-02-18T11:11:05;13.30;;;2.80;;
53281;SDS011;39167;52.794;6.892;2023-02-18T11:13:54;13.63;;;2.88;;
53281;SDS011;39167;52.794;6.892;2023-02-18T11:16:23;15.10;;;3.22;;
53281;SDS011;39167;52.794;6.892;2023-02-18T11:19:00;18.60;;;3.17;;
53281;SDS011;39167;52.794;6.892;2023-02-18T11:21:35;15.30;;;2.95;;
53281;SDS011;39167;52.794;6.892;2023-02-18T11:24:11;17.25;;;3.50;;
53281;SDS011;39167;52.794;6.892;2023-02-18T11:29:14;11.70;;;3.00;;
53281;SDS011;39167;52.794;6.892;2023-02-18T11:31:46;17.85;;;4.63;;
53281;SDS011;39167;52.794;6.892;2023-02-18T11:34:19;15.43;;;3.15;;
53281;SDS011;39167;52.794;6.892;2023-02-18T11:36:47;17.95;;;3.67;;
53281;SDS011;39167;52.794;6.892;2023-02-18T11:42:01;20.80;;;3.97;;
53281;SDS011;39167;52.794;6.892;2023-02-18T11:44:36;21.30;;;4.45;;
53281;SDS011;39167;52.794;6.892;2023-02-18T11:49:39;26.73;;;4.38;;
53281;SDS011;39167;52.794;6.892;2023-02-18T11:54:35;16.70;;;3.85;;
53281;SDS011;39167;52.794;6.892;2023-02-18T11:57:01;18.70;;;5.95;;
53281;SDS011;39167;52.794;6.892;2023-02-18T11:59:31;18.83;;;4.80;;
53281;SDS011;39167;52.794;6.892;2023-02-18T12:07:18;18.13;;;4.07;;
53281;SDS011;39167;52.794;6.892;2023-02-18T12:10:02;13.88;;;4.00;;
53281;SDS011;39167;52.794;6.892;2023-02-18T12:12:37;13.05;;;3.38;;
53281;SDS011;39167;52.794;6.892;2023-02-18T12:15:17;12.18;;;2.88;;
53281;SDS011;39167;52.794;6.892;2023-02-18T13:01:54;10.38;;;2.60;;
53281;SDS011;39167;52.794;6.892;2023-02-18T13:07:28;12.02;;;2.95;;
53281;SDS011;39167;52.794;6.892;2023-02-18T13:12:59;9.55;;;2.60;;
53281;SDS011;39167;52.794;6.892;2023-02-18T13:18:15;8.20;;;2.60;;
53281;SDS011;39167;52.794;6.892;2023-02-18T13:20:53;12.40;;;2.65;;
53281;SDS011;39167;52.794;6.892;2023-02-18T13:23:22;6.43;;;2.30;;
53281;SDS011;39167;52.794;6.892;2023-02-18T13:25:59;10.27;;;2.45;;
53281;SDS011;39167;52.794;6.892;2023-02-18T13:28:31;11.90;;;2.55;;
53281;SDS011;39167;52.794;6.892;2023-02-18T13:34:19;11.70;;;2.30;;
53281;SDS011;39167;52.794;6.892;2023-02-18T13:39:32;11.90;;;2.63;;
53281;SDS011;39167;52.794;6.892;2023-02-18T13:45:01;11.27;;;2.28;;
53281;SDS011;39167;52.794;6.892;2023-02-18T13:58:04;11.57;;;2.50;;
53281;SDS011;39167;52.794;6.892;2023-02-18T14:00:50;10.80;;;2.75;;
53281;SDS011;39167;52.794;6.892;2023-02-18T14:06:00;7.93;;;2.05;;
53281;SDS011;39167;52.794;6.892;2023-02-18T14:08:37;14.18;;;3.00;;
53281;SDS011;39167;52.794;6.892;2023-02-18T14:13:40;10.70;;;2.55;;
53281;SDS011;39167;52.794;6.892;2023-02-18T14:16:07;9.20;;;2.17;;
53281;SDS011;39167;52.794;6.892;2023-02-18T14:21:16;10.85;;;2.65;;
53281;SDS011;39167;52.794;6.892;2023-02-18T14:26:23;9.07;;;2.40;;
53281;SDS011;39167;52.794;6.892;2023-02-18T14:34:17;13.77;;;3.42;;
53281;SDS011;39167;52.794;6.892;2023-02-18T14:36:51;10.30;;;2.75;;
53281;SDS011;39167;52.794;6.892;2023-02-18T14:42:32;10.00;;;2.10;;
53281;SDS011;39167;52.794;6.892;2023-02-18T14:45:07;12.98;;;2.88;;
53281;SDS011;39167;52.794;6.892;2023-02-18T14:50:31;12.13;;;2.88;;
53281;SDS011;39167;52.794;6.892;2023-02-18T14:53:02;13.70;;;2.83;;
53281;SDS011;39167;52.794;6.892;2023-02-18T14:55:34;14.25;;;3.05;;
53281;SDS011;39167;52.794;6.892;2023-02-18T14:58:07;12.38;;;2.70;;
53281;SDS011;39167;52.794;6.892;2023-02-18T15:00:50;16.48;;;3.25;;
53281;SDS011;39167;52.794;6.892;2023-02-18T15:03:16;12.98;;;3.20;;
53281;SDS011;39167;52.794;6.892;2023-02-18T15:05:44;10.05;;;2.75;;
53281;SDS011;39167;52.794;6.892;2023-02-18T15:08:17;15.75;;;3.35;;
53281;SDS011;39167;52.794;6.892;2023-02-18T15:13:19;14.40;;;2.70;;
53281;SDS011;39167;52.794;6.892;2023-02-18T15:15:57;12.18;;;2.53;;
53281;SDS011;39167;52.794;6.892;2023-02-18T15:18:42;10.60;;;2.45;;
53281;SDS011;39167;52.794;6.892;2023-02-18T15:21:16;12.18;;;2.65;;
53281;SDS011;39167;52.794;6.892;2023-02-18T15:23:53;15.70;;;3.10;;
53281;SDS011;39167;52.794;6.892;2023-02-18T15:26:19;10.13;;;2.50;;
53281;SDS011;39167;52.794;6.892;2023-02-18T15:31:44;7.57;;;2.00;;
53281;SDS011;39167;52.794;6.892;2023-02-18T15:34:24;11.57;;;2.22;;
53281;SDS011;39167;52.794;6.892;2023-02-18T15:36:55;11.05;;;2.45;;
53281;SDS011;39167;52.794;6.892;2023-02-18T15:39:22;15.25;;;2.72;;
53281;SDS011;39167;52.794;6.892;2023-02-18T15:41:56;16.77;;;3.53;;
53281;SDS011;39167;52.794;6.892;2023-02-18T15:44:31;18.05;;;2.90;;
53281;SDS011;39167;52.794;6.892;2023-02-18T15:46:59;19.02;;;4.00;;
53281;SDS011;39167;52.794;6.892;2023-02-18T15:49:32;17.05;;;3.40;;
53281;SDS011;39167;52.794;6.892;2023-02-18T15:52:00;14.00;;;3.42;;
53281;SDS011;39167;52.794;6.892;2023-02-18T15:54:27;13.70;;;3.08;;
53281;SDS011;39167;52.794;6.892;2023-02-18T15:56:54;12.65;;;3.10;;
53281;SDS011;39167;52.794;6.892;2023-02-18T15:59:34;9.50;;;2.47;;
53281;SDS011;39167;52.794;6.892;2023-02-18T16:04:33;14.32;;;2.70;;
53281;SDS011;39167;52.794;6.892;2023-02-18T16:07:14;14.00;;;3.40;;
53281;SDS011;39167;52.794;6.892;2023-02-18T16:09:47;12.98;;;2.95;;
53281;SDS011;39167;52.794;6.892;2023-02-18T16:12:18;14.50;;;3.45;;
53281;SDS011;39167;52.794;6.892;2023-02-18T16:17:21;12.43;;;2.47;;
53281;SDS011;39167;52.794;6.892;2023-02-18T16:19:54;15.85;;;3.00;;
53281;SDS011;39167;52.794;6.892;2023-02-18T16:22:31;16.17;;;2.90;;
53281;SDS011;39167;52.794;6.892;2023-02-18T16:27:32;13.32;;;2.47;;
53281;SDS011;39167;52.794;6.892;2023-02-18T16:30:01;13.18;;;2.30;;
53281;SDS011;39167;52.794;6.892;2023-02-18T16:32:39;11.07;;;2.72;;
53281;SDS011;39167;52.794;6.892;2023-02-18T16:35:05;11.88;;;3.00;;
53281;SDS011;39167;52.794;6.892;2023-02-18T16:37:31;13.25;;;3.15;;
53281;SDS011;39167;52.794;6.892;2023-02-18T16:40:03;16.38;;;2.95;;
53281;SDS011;39167;52.794;6.892;2023-02-18T16:42:41;7.57;;;2.65;;
53281;SDS011;39167;52.794;6.892;2023-02-18T16:45:10;16.23;;;2.80;;
53281;SDS011;39167;52.794;6.892;2023-02-18T16:47:37;13.25;;;2.50;;
53281;SDS011;39167;52.794;6.892;2023-02-18T16:50:03;14.95;;;2.70;;
53281;SDS011;39167;52.794;6.892;2023-02-18T16:52:30;16.60;;;3.33;;
53281;SDS011;39167;52.794;6.892;2023-02-18T16:54:55;11.80;;;2.67;;
53281;SDS011;39167;52.794;6.892;2023-02-18T16:57:22;10.60;;;3.35;;
53281;SDS011;39167;52.794;6.892;2023-02-18T16:59:48;16.23;;;2.88;;
53281;SDS011;39167;52.794;6.892;2023-02-18T17:02:18;14.35;;;2.13;;
53281;SDS011;39167;52.794;6.892;2023-02-18T17:04:46;16.45;;;3.10;;
53281;SDS011;39167;52.794;6.892;2023-02-18T17:07:12;11.75;;;2.63;;
53281;SDS011;39167;52.794;6.892;2023-02-18T17:09:38;11.68;;;2.58;;
53281;SDS011;39167;52.794;6.892;2023-02-18T17:12:04;13.45;;;3.85;;
53281;SDS011;39167;52.794;6.892;2023-02-18T17:14:30;13.23;;;3.17;;
53281;SDS011;39167;52.794;6.892;2023-02-18T17:16:56;14.57;;;2.58;;
53281;SDS011;39167;52.794;6.892;2023-02-18T17:19:21;18.42;;;2.97;;
53281;SDS011;39167;52.794;6.892;2023-02-18T17:21:47;13.95;;;2.53;;
53281;SDS011;39167;52.794;6.892;2023-02-18T17:24:14;27.33;;;4.18;;
53281;SDS011;39167;52.794;6.892;2023-02-18T17:26:42;17.08;;;3.13;;
53281;SDS011;39167;52.794;6.892;2023-02-18T17:29:08;15.27;;;3.65;;
53281;SDS011;39167;52.794;6.892;2023-02-18T17:31:35;15.05;;;4.32;;
53281;SDS011;39167;52.794;6.892;2023-02-18T17:36:32;18.05;;;3.75;;
53281;SDS011;39167;52.794;6.892;2023-02-18T17:38:58;13.18;;;3.30;;
53281;SDS011;39167;52.794;6.892;2023-02-18T17:41:24;17.33;;;3.20;;
53281;SDS011;39167;52.794;6.892;2023-02-18T17:43:50;17.23;;;3.72;;
53281;SDS011;39167;52.794;6.892;2023-02-18T17:46:17;10.27;;;2.88;;
53281;SDS011;39167;52.794;6.892;2023-02-18T17:48:44;16.20;;;2.85;;
53281;SDS011;39167;52.794;6.892;2023-02-18T17:51:21;17.77;;;2.90;;